Time;durP1;ratioP1;P1;durP2;ratioP2;P2;SDS_P1;SDS_P2;PMS_P1;PMS_P2;Temp;Humidity;BMP_temperature;BMP_pressure;BME280_temperature;BME280_humidity;BME280_pressure;Samples;Min_cycle;Max_cycle;Signal;HPM_P1;HPM_P2
2022/12/19 03:04:15;;;;;;;37.53;22.73;;;;;;;-3.82;82.53;101917.94;4989215;28;20103;-65
2022/12/19 04:04:14;;;;;;;37.85;24.17;;;;;;;-3.74;82.10;101891.50;4991361;28;20073;-60
2022/12/19 06:55:04;;;;;;;36.70;22.50;;;;;;;-3.37;81.26;101770.38;4970643;28;20566;-62
2022/12/19 06:57:31;;;;;;;40.03;23.58;;;;;;;-3.37;81.35;101760.06;4980858;28;20138;-63
2022/12/19 06:59:59;;;;;;;37.70;22.70;;;;;;;-3.35;80.84;101767.81;4960474;28;20065;-63
2022/12/19 07:02:29;;;;;;;43.03;25.35;;;;;;;-3.33;81.07;101773.88;4974059;28;20511;-61
2022/12/19 07:05:04;;;;;;;42.55;23.95;;;;;;;-3.32;80.88;101793.63;4963864;28;20527;-63
2022/12/19 07:07:32;;;;;;;;;;;;;;;-3.34;80.89;101790.13;4963932;28;20081;-63
2022/12/19 07:09:59;;;;;;;39.25;23.10;;;;;;;-3.32;80.95;101789.31;4959666;28;19922;-63
2022/12/19 07:12:26;;;;;;;42.05;23.38;;;;;;;-3.31;80.82;101785.91;4983410;28;20089;-62
2022/12/19 07:14:53;;;;;;;36.50;22.08;;;;;;;-3.30;81.05;101771.31;4977410;28;20496;-63
2022/12/19 07:17:22;;;;;;;37.78;21.30;;;;;;;-3.25;80.92;101773.97;4976977;28;20130;-63
2022/12/19 07:19:49;;;;;;;42.10;22.00;;;;;;;-3.21;80.71;101770.59;4957209;28;20055;-63
2022/12/19 07:22:17;;;;;;;37.65;23.23;;;;;;;-3.18;80.75;101762.94;4962574;28;20381;-63
2022/12/19 07:24:44;;;;;;;42.38;23.30;;;;;;;-3.21;80.82;101768.88;4978857;28;20097;-63
2022/12/19 07:27:11;;;;;;;42.22;23.58;;;;;;;-3.20;80.75;101769.75;4951309;28;20063;-64
2022/12/19 07:29:38;;;;;;;36.97;21.13;;;;;;;-3.21;81.16;101756.00;4963386;28;20097;-64
2022/12/19 07:32:06;;;;;;;39.40;22.67;;;;;;;-3.19;81.21;101763.78;4958154;28;20055;-63
2022/12/19 07:34:33;;;;;;;37.92;21.17;;;;;;;-3.11;81.06;101769.88;4964530;28;20109;-63
2022/12/19 07:37:00;;;;;;;43.63;23.52;;;;;;;-3.09;80.81;101770.81;4976051;28;20141;-63
2022/12/19 07:39:27;;;;;;;41.30;23.30;;;;;;;-3.07;80.96;101759.66;4972531;28;20759;-62
2022/12/19 07:41:55;;;;;;;42.17;23.70;;;;;;;-3.04;80.57;101761.44;4943397;28;20127;-63
2022/12/19 07:44:22;;;;;;;43.38;23.38;;;;;;;-2.98;80.40;101764.09;4973314;28;20060;-64
2022/12/19 07:46:49;;;;;;;40.00;22.85;;;;;;;-2.96;80.27;101770.16;4974755;28;20157;-63
2022/12/19 07:49:16;;;;;;;41.75;22.45;;;;;;;-2.93;80.40;101765.00;4977337;28;20410;-63
2022/12/19 07:51:48;;;;;;;35.35;21.05;;;;;;;-2.92;80.15;101771.94;4971798;28;20411;-63
2022/12/19 07:54:16;;;;;;;40.35;21.77;;;;;;;-2.89;80.32;101763.34;4976775;28;20192;-65
2022/12/19 07:56:43;;;;;;;43.60;23.73;;;;;;;-2.83;80.67;101760.88;4961096;28;20146;-64
2022/12/19 07:59:11;;;;;;;37.88;21.65;;;;;;;-2.82;80.38;101758.31;4972487;28;20081;-64
2022/12/19 08:01:39;;;;;;;38.50;21.92;;;;;;;-2.82;80.63;101755.75;4972997;28;20535;-63
2022/12/19 08:04:06;;;;;;;39.08;22.30;;;;;;;-2.78;80.49;101760.94;4955999;28;20051;-63
2022/12/19 08:06:34;;;;;;;39.13;20.83;;;;;;;-2.75;80.79;101751.53;4977192;28;20072;-63
2022/12/19 08:09:07;;;;;;;40.40;23.02;;;;;;;-2.73;80.12;101747.28;4975796;28;20045;-62
2022/12/19 08:11:34;;;;;;;35.42;19.98;;;;;;;-2.68;80.23;101748.19;4976353;28;20519;-64
2022/12/19 08:14:01;;;;;;;42.10;22.30;;;;;;;-2.61;79.95;101738.84;4969359;28;20064;-64
2022/12/19 08:16:29;;;;;;;40.78;21.75;;;;;;;-2.62;79.85;101727.66;4978177;28;20046;-63
2022/12/19 08:18:56;;;;;;;41.35;23.08;;;;;;;-2.61;79.78;101734.56;4974549;28;20042;-64
2022/12/19 08:21:24;;;;;;;39.83;23.05;;;;;;;-2.57;79.99;101731.19;4977214;28;20061;-64
2022/12/19 08:23:51;;;;;;;39.20;22.65;;;;;;;-2.52;80.00;101728.66;4976473;28;20122;-63
2022/12/19 08:26:23;;;;;;;44.78;23.58;;;;;;;-2.48;79.50;101724.38;4972910;28;20074;-64
2022/12/19 08:28:52;;;;;;;41.95;22.63;;;;;;;-2.49;79.67;101727.81;4976929;28;20656;-64
2022/12/19 08:31:20;;;;;;;37.88;21.35;;;;;;;-2.52;79.24;101717.44;4955600;28;20150;-66
2022/12/19 08:33:48;;;;;;;41.75;22.80;;;;;;;-2.44;79.39;101721.00;4954314;28;20591;-62
2022/12/19 08:36:19;;;;;;;39.45;21.55;;;;;;;-2.40;79.34;101712.44;4978731;28;20046;-65
2022/12/19 08:38:47;;;;;;;38.40;20.05;;;;;;;-2.38;79.22;101724.53;4973260;28;20074;-64
2022/12/19 08:41:15;;;;;;;43.83;23.25;;;;;;;-2.37;79.42;101730.53;4960488;28;20367;-64
2022/12/19 08:43:47;;;;;;;38.70;20.45;;;;;;;-2.31;79.34;101735.75;4979326;28;20046;-64
2022/12/19 08:46:16;;;;;;;39.17;21.23;;;;;;;-2.29;79.31;101721.19;4975842;28;20138;-64
2022/12/19 08:48:44;;;;;;;43.70;21.08;;;;;;;-2.24;79.04;101714.38;4976843;28;20291;-65
2022/12/19 08:51:12;;;;;;;40.45;20.67;;;;;;;-2.19;79.16;101709.25;4973107;28;20528;-64
2022/12/19 08:53:40;;;;;;;37.10;22.00;;;;;;;-2.16;78.91;101711.84;4960935;28;20103;-63
2022/12/19 08:56:18;;;;;;;39.15;22.08;;;;;;;-2.13;78.46;101701.56;4974785;28;20576;-64
2022/12/19 08:58:46;;;;;;;42.28;21.42;;;;;;;-2.11;78.71;101689.56;4980090;28;20082;-64
2022/12/19 09:01:17;;;;;;;44.28;21.83;;;;;;;-2.06;78.31;101680.16;4957650;28;20047;-64
2022/12/19 09:03:45;;;;;;;36.75;21.05;;;;;;;-1.99;78.36;101681.06;4981387;28;20455;-64
2022/12/19 09:06:33;;;;;;;41.95;22.10;;;;;;;-1.96;78.10;101675.94;4976405;28;20071;-64
2022/12/19 09:09:03;;;;;;;41.17;22.48;;;;;;;-1.95;78.26;101668.19;4986721;28;20034;-62
2022/12/19 09:11:30;;;;;;;34.30;19.02;;;;;;;-1.91;78.24;101671.69;4976966;28;20142;-64
2022/12/19 09:13:57;;;;;;;35.78;19.50;;;;;;;-1.88;78.23;101676.88;4965449;28;20042;-64
2022/12/19 09:16:26;;;;;;;38.45;20.25;;;;;;;-1.89;78.16;101670.84;4966324;28;20621;-64
2022/12/19 09:18:55;;;;;;;40.03;21.33;;;;;;;-1.84;77.83;101658.00;4965980;28;20130;-64
2022/12/19 09:21:26;;;;;;;44.42;21.25;;;;;;;-1.80;77.80;101657.16;4980406;28;20078;-64
2022/12/19 09:23:55;;;;;;;37.63;19.73;;;;;;;-1.83;77.97;101657.13;4960977;28;20142;-64
2022/12/19 09:26:31;;;;;;;37.35;20.02;;;;;;;-1.70;77.96;101643.47;4973134;28;20138;-64
2022/12/19 09:28:59;;;;;;;41.20;21.15;;;;;;;-1.67;78.01;101645.19;4970561;28;20128;-64
2022/12/19 09:31:28;;;;;;;37.53;20.60;;;;;;;-1.62;78.23;101659.91;4959284;28;20050;-64
2022/12/19 09:33:55;;;;;;;40.67;22.58;;;;;;;-1.62;77.99;101639.25;4978472;28;20051;-64
2022/12/19 09:36:23;;;;;;;39.60;20.70;;;;;;;-1.58;77.80;101638.38;4956663;28;20058;-64
2022/12/19 09:38:55;;;;;;;39.63;19.83;;;;;;;-1.51;77.57;101625.53;4955768;28;20572;-64
2022/12/19 09:41:30;;;;;;;39.63;20.45;;;;;;;-1.48;77.51;101628.16;4945046;28;20110;-64
2022/12/19 09:44:16;;;;;;;42.22;20.75;;;;;;;-1.42;77.25;101620.41;4955664;28;20137;-64
2022/12/19 09:46:43;;;;;;;38.60;21.52;;;;;;;-1.36;77.09;101615.28;4978973;28;20510;-64
2022/12/19 09:49:13;;;;;;;38.05;21.00;;;;;;;-1.33;76.90;101625.66;4977880;28;20140;-65
2022/12/19 09:51:48;;;;;;;39.67;20.65;;;;;;;-1.32;77.09;101604.13;4980762;28;20111;-64
2022/12/19 09:54:35;;;;;;;34.72;18.85;;;;;;;-1.24;76.28;101604.16;4960946;28;20061;-64
2022/12/19 09:57:17;;;;;;;38.30;20.67;;;;;;;-1.22;76.58;101608.47;4965489;28;20483;-64
2022/12/19 09:59:56;;;;;;;37.75;19.95;;;;;;;-1.18;76.59;101592.13;4955220;28;20146;-63
2022/12/19 10:02:45;;;;;;;36.17;20.25;;;;;;;-1.12;76.21;101589.59;4957784;28;20138;-64
2022/12/19 10:05:29;;;;;;;39.72;21.20;;;;;;;-1.11;75.89;101590.47;4973866;28;20058;-64
2022/12/19 10:08:25;;;;;;;37.88;21.23;;;;;;;-1.03;76.41;101575.84;4957942;28;20073;-64
2022/12/19 10:11:09;;;;;;;37.72;20.38;;;;;;;-0.97;76.24;101569.84;4956525;28;20137;-64
2022/12/19 10:14:14;;;;;;;44.58;21.05;;;;;;;-0.92;75.53;101566.41;4968098;28;20059;-64
2022/12/19 10:17:11;;;;;;;42.37;18.87;;;;;;;-0.81;75.63;101575.06;4977873;28;20286;-64
2022/12/19 10:20:16;;;;;;;44.58;20.67;;;;;;;-0.74;75.42;101588.84;4962745;28;20153;-65
2022/12/19 10:23:08;;;;;;;40.90;22.02;;;;;;;-0.69;74.97;101565.59;4973155;28;20047;-64
2022/12/19 10:25:54;;;;;;;37.53;18.63;;;;;;;-0.64;75.27;101553.53;4964859;28;20452;-64
2022/12/19 10:29:01;;;;;;;38.90;19.88;;;;;;;-0.60;74.65;101557.88;4977384;28;20061;-64
2022/12/19 10:31:41;;;;;;;36.20;19.48;;;;;;;-0.52;74.64;101553.56;4933343;29;20058;-64
2022/12/19 10:34:21;;;;;;;38.08;20.17;;;;;;;-0.47;74.26;101545.81;4979229;28;20046;-65
2022/12/19 10:36:57;;;;;;;36.92;19.73;;;;;;;-0.43;74.33;101538.06;4981634;28;20061;-64
2022/12/19 10:39:44;;;;;;;36.65;19.05;;;;;;;-0.35;74.32;101538.06;4960543;28;20057;-62
2022/12/19 10:42:21;;;;;;;49.08;19.65;;;;;;;-0.33;74.04;101539.78;4983093;28;20392;-63
2022/12/19 10:44:49;;;;;;;38.13;19.92;;;;;;;-0.26;74.21;101535.50;4941947;28;20055;-63
2022/12/19 10:47:16;;;;;;;36.20;19.15;;;;;;;-0.22;74.35;101533.78;4970294;28;20459;-64
2022/12/19 10:49:44;;;;;;;34.97;19.02;;;;;;;-0.15;74.33;101522.53;4959805;28;20423;-63
2022/12/19 10:52:12;;;;;;;41.10;20.40;;;;;;;-0.06;73.61;101510.44;4981623;28;20058;-64
2022/12/19 10:54:41;;;;;;;41.53;21.95;;;;;;;0.04;73.54;101500.94;4963938;28;20526;-64
2022/12/19 10:57:23;;;;;;;38.78;19.02;;;;;;;0.11;72.90;101507.00;4965502;28;20104;-63
2022/12/19 11:00:02;;;;;;;36.03;19.60;;;;;;;0.14;72.92;101502.66;4968228;28;20049;-65
2022/12/19 11:02:34;;;;;;;38.72;20.02;;;;;;;0.17;73.21;101486.25;4982919;28;20051;-65
2022/12/19 11:05:04;;;;;;;35.20;18.50;;;;;;;0.21;73.25;101487.97;4973020;28;20423;-64
2022/12/19 11:07:32;;;;;;;38.40;20.33;;;;;;;0.28;72.20;101492.28;4976820;28;20054;-64
2022/12/19 11:09:59;;;;;;;34.97;18.17;;;;;;;0.28;72.46;101492.28;4975789;28;20051;-65
2022/12/19 11:12:52;;;;;;;40.17;19.90;;;;;;;0.29;72.22;101478.47;4986431;28;20050;-64
2022/12/19 11:15:46;;;;;;;35.33;19.52;;;;;;;0.35;72.26;101470.66;4958996;28;20061;-64
2022/12/19 11:18:34;;;;;;;37.30;19.27;;;;;;;0.39;72.88;101461.16;4980214;28;20129;-64
2022/12/19 11:21:28;;;;;;;34.53;18.60;;;;;;;0.42;72.49;101462.00;4968902;28;20050;-64
2022/12/19 11:24:35;;;;;;;33.97;17.90;;;;;;;0.43;72.16;101455.94;4961989;28;20420;-64
2022/12/19 11:27:42;;;;;;;39.30;19.50;;;;;;;0.44;73.49;101451.63;4970480;28;20454;-63
2022/12/19 11:30:29;;;;;;;;;;;;;;;0.50;73.67;101444.72;4945681;28;20078;-63
2022/12/19 11:33:17;;;;;;;34.65;18.73;;;;;;;0.53;74.00;101441.22;4960142;28;19936;-63
2022/12/19 11:35:50;;;;;;;32.88;17.60;;;;;;;0.52;74.41;101449.03;4973837;28;20061;-62
2022/12/19 11:38:28;;;;;;;37.70;19.98;;;;;;;0.57;74.51;101434.31;4969782;28;20055;-64
2022/12/19 11:40:56;;;;;;;42.42;19.40;;;;;;;0.58;74.88;101448.97;4955674;28;20077;-64
2022/12/19 11:43:53;;;;;;;32.38;18.65;;;;;;;0.60;75.45;101444.66;4949472;28;20069;-64
2022/12/19 11:46:39;;;;;;;36.63;18.15;;;;;;;0.63;75.70;101431.69;4944663;28;20074;-64
2022/12/19 11:49:12;;;;;;;36.78;19.30;;;;;;;0.65;76.26;101424.78;4951766;28;20141;-64
2022/12/19 11:51:57;;;;;;;35.63;19.40;;;;;;;0.62;77.01;101427.38;4951943;28;20082;-64
2022/12/19 11:54:56;;;;;;;34.65;18.65;;;;;;;0.64;77.34;101416.16;4956691;28;20051;-64
2022/12/19 11:57:24;;;;;;;33.72;19.30;;;;;;;0.63;77.83;101416.13;4961767;28;20141;-64
2022/12/19 11:59:52;;;;;;;36.58;19.67;;;;;;;0.63;79.10;101414.44;4962574;28;20057;-64
2022/12/19 12:02:41;;;;;;;37.88;19.55;;;;;;;0.61;79.40;101423.06;4953603;28;20138;-64
2022/12/19 12:05:23;;;;;;;35.22;19.42;;;;;;;0.62;80.45;101412.69;4967436;28;20157;-63
2022/12/19 12:08:13;;;;;;;33.97;19.48;;;;;;;0.62;81.03;101406.66;4972542;28;20055;-64
2022/12/19 12:11:07;;;;;;;36.58;19.52;;;;;;;0.64;81.20;101407.50;4953299;28;20050;-63
2022/12/19 12:14:18;;;;;;;34.72;18.23;;;;;;;0.72;81.56;101397.94;4946747;28;20055;-63
2022/12/19 12:17:17;;;;;;;34.75;19.08;;;;;;;0.71;82.38;101396.22;4975100;28;20137;-63
2022/12/19 12:20:27;;;;;;;30.90;17.70;;;;;;;0.72;83.59;101390.16;4968965;28;20053;-64
2022/12/19 12:23:40;;;;;;;32.72;18.65;;;;;;;0.81;84.24;101391.84;4953037;28;20557;-64
2022/12/19 12:26:40;;;;;;;35.97;19.63;;;;;;;0.80;84.86;101390.13;4959132;28;20058;-65
2022/12/19 12:29:33;;;;;;;33.05;18.52;;;;;;;0.83;85.31;101387.53;4970239;28;20085;-64
2022/12/19 12:32:33;;;;;;;37.38;19.55;;;;;;;0.78;85.98;101387.56;4997426;23;20498;-65
2022/12/19 12:35:39;;;;;;;34.60;18.63;;;;;;;0.79;86.92;101380.63;5003272;28;20129;-63
2022/12/19 12:38:53;;;;;;;34.40;19.90;;;;;;;0.79;87.77;101373.72;5007113;28;20057;-63
2022/12/19 12:44:22;;;;;;;35.70;19.33;;;;;;;0.80;90.25;101372.84;4994501;28;20129;-63
2022/12/19 12:47:21;;;;;;;34.88;19.83;;;;;;;0.81;91.09;101381.47;5008410;28;20132;-63
2022/12/19 12:50:03;;;;;;;32.63;18.70;;;;;;;0.83;91.86;101380.59;4996243;28;20068;-63
2022/12/19 12:52:37;;;;;;;33.47;18.65;;;;;;;0.89;91.91;101382.28;5006795;28;20466;-63
2022/12/19 12:55:15;;;;;;;32.45;18.42;;;;;;;0.93;92.34;101365.84;5003656;28;20421;-63
2022/12/19 12:57:42;;;;;;;32.53;19.30;;;;;;;0.96;93.17;101365.81;4989526;28;20404;-64
2022/12/19 13:00:32;;;;;;;31.98;17.83;;;;;;;0.98;94.11;101367.53;4999999;28;20057;-64
2022/12/19 13:03:06;;;;;;;33.85;18.33;;;;;;;0.99;94.99;101371.84;4975539;28;20193;-64
2022/12/19 13:06:03;;;;;;;27.25;15.73;;;;;;;1.05;95.03;101370.09;4990413;28;20578;-64
2022/12/19 13:08:37;;;;;;;34.42;18.52;;;;;;;1.08;95.87;101355.38;4997445;28;20332;-64
2022/12/19 13:14:35;;;;;;;33.50;17.90;;;;;;;1.11;98.27;101351.88;4992254;28;20043;-64
2022/12/19 13:17:07;;;;;;;29.58;17.25;;;;;;;1.13;97.91;101344.97;4999499;28;20049;-65
2022/12/19 13:19:37;;;;;;;29.73;17.67;;;;;;;1.17;98.05;101347.50;4989445;28;20058;-64
2022/12/19 13:22:07;;;;;;;30.92;16.70;;;;;;;1.16;99.04;101340.59;4986509;28;20181;-64
2022/12/19 13:24:40;;;;;;;30.30;17.48;;;;;;;1.11;100.00;101344.94;4985738;28;20185;-64
2022/12/19 13:27:19;;;;;;;39.85;19.20;;;;;;;1.16;100.00;101337.13;4989829;28;20432;-64
2022/12/19 13:29:58;;;;;;;35.38;17.80;;;;;;;1.13;100.00;101332.84;4996050;28;20137;-64
2022/12/19 13:32:32;;;;;;;29.20;17.58;;;;;;;1.14;100.00;101333.72;4996263;28;20068;-64
2022/12/19 13:35:01;;;;;;;38.70;18.63;;;;;;;1.14;100.00;101325.94;4987509;28;20149;-64
2022/12/19 13:37:49;;;;;;;36.13;18.60;;;;;;;1.15;100.00;101332.81;4985390;28;20147;-64
2022/12/19 13:40:42;;;;;;;33.17;17.60;;;;;;;1.18;100.00;101331.06;4993622;28;20524;-64
2022/12/19 13:46:06;;;;;;;29.35;16.65;;;;;;;1.27;100.00;101337.91;4987439;28;20157;-63
2022/12/19 13:48:45;;;;;;;33.63;18.73;;;;;;;1.33;100.00;101334.38;4989539;28;20124;-63
2022/12/19 13:51:13;;;;;;;29.35;17.67;;;;;;;1.34;100.00;101329.19;5002222;28;20097;-64
2022/12/19 13:53:42;;;;;;;32.38;17.33;;;;;;;1.36;100.00;101324.84;4993741;28;20078;-64
2022/12/19 13:56:16;;;;;;;34.17;18.77;;;;;;;1.36;100.00;101335.22;4998806;28;20074;-63
2022/12/19 13:58:52;;;;;;;37.83;19.37;;;;;;;1.36;100.00;101318.81;4994687;28;20088;-64
2022/12/19 14:01:27;;;;;;;31.75;19.67;;;;;;;1.38;100.00;101310.13;4986790;28;20533;-64
2022/12/19 14:03:57;;;;;;;32.40;18.45;;;;;;;1.41;100.00;101315.28;5002029;28;20038;-64
2022/12/19 14:06:42;;;;;;;33.53;18.98;;;;;;;1.38;100.00;101310.13;5005718;28;20066;-64
2022/12/19 14:09:42;;;;;;;35.38;19.50;;;;;;;1.41;100.00;101312.69;4999355;28;20325;-64
2022/12/19 14:15:43;;;;;;;30.55;19.27;;;;;;;1.42;100.00;101308.34;4977188;28;20146;-65
2022/12/19 14:18:20;;;;;;;36.85;20.88;;;;;;;1.43;100.00;101312.66;4984593;28;20145;-65
2022/12/19 14:21:20;;;;;;;37.88;19.77;;;;;;;1.36;100.00;101313.63;4984516;28;20078;-65
2022/12/19 14:24:22;;;;;;;37.67;20.23;;;;;;;1.36;100.00;101311.88;4991187;28;20369;-64
2022/12/19 16:08:26;;;;;;;36.35;21.60;;;;;;;2.16;100.00;101266.78;4978634;28;20053;-64
2022/12/19 19:29:34;;;;;;;40.05;23.83;;;;;;;3.54;100.00;101177.66;5001639;23;20556;-65
2022/12/19 19:32:01;;;;;;;36.42;21.55;;;;;;;3.59;100.00;101188.00;4977618;28;20062;-65
